createdAt,value
2023-04-10T00:01:47.664Z,5.52
2023-04-10T00:03:56.475Z,5.46
2023-04-10T00:06:04.756Z,5.51
2023-04-10T00:08:12.691Z,5.48
2023-04-10T00:10:20.936Z,5.51
2023-04-10T00:12:31.539Z,5.47
2023-04-10T00:14:39.408Z,5.36
2023-04-10T00:16:47.309Z,5.25
2023-04-10T00:18:55.337Z,5.21
2023-04-10T00:21:03.211Z,5.14
2023-04-10T00:23:11.000Z,5.23
2023-04-10T00:25:18.866Z,5.26
2023-04-10T00:27:26.721Z,5.17
2023-04-10T00:29:37.150Z,5.15
2023-04-10T00:31:44.989Z,5.23
2023-04-10T00:33:54.891Z,5.26
2023-04-10T00:36:03.353Z,5.20
2023-04-10T00:38:11.320Z,5.08
2023-04-10T00:40:19.316Z,5.05
2023-04-10T00:42:27.204Z,5.03
2023-04-10T00:44:38.237Z,4.98
2023-04-10T00:46:46.599Z,5.10
2023-04-10T00:48:55.640Z,5.05
2023-04-10T00:51:03.958Z,5.02
2023-04-10T00:53:11.869Z,5.10
2023-04-10T00:55:19.734Z,4.98
2023-04-10T00:57:28.661Z,4.92
2023-04-10T00:59:39.490Z,4.81
2023-04-10T01:01:47.484Z,4.85
2023-04-10T01:03:56.992Z,4.83
2023-04-10T01:06:14.254Z,4.78
2023-04-10T01:08:33.574Z,4.78
2023-04-10T01:11:02.198Z,4.73
2023-04-10T01:13:19.342Z,4.69
2023-04-10T01:15:33.840Z,4.66
2023-04-10T01:17:48.348Z,4.69
2023-04-10T01:20:07.510Z,4.67
2023-04-10T01:22:19.215Z,4.76
2023-04-10T01:24:47.241Z,4.78
2023-04-10T01:27:13.223Z,4.71
2023-04-10T01:29:27.408Z,4.77
2023-04-10T01:31:41.894Z,4.68
2023-04-10T01:33:53.040Z,4.64
2023-04-10T01:36:06.286Z,4.63
2023-04-10T01:38:15.230Z,4.60
2023-04-10T01:40:24.748Z,4.53
2023-04-10T01:42:35.753Z,4.54
2023-04-10T01:44:50.040Z,4.61
2023-04-10T01:46:59.300Z,4.48
2023-04-10T01:49:08.495Z,4.42
2023-04-10T01:51:18.528Z,4.38
2023-04-10T01:53:27.947Z,4.30
2023-04-10T01:55:37.329Z,4.25
2023-04-10T01:57:49.111Z,4.27
2023-04-10T02:00:00.453Z,4.32
2023-04-10T02:02:11.966Z,4.40
2023-04-10T02:04:20.037Z,4.39
2023-04-10T02:06:38.146Z,4.31
2023-04-10T02:08:53.955Z,4.37
2023-04-10T02:11:10.610Z,4.26
2023-04-10T02:13:23.171Z,4.24
2023-04-10T02:15:35.734Z,4.23
2023-04-10T02:17:44.851Z,4.27
2023-04-10T02:20:06.171Z,4.22
2023-04-10T02:22:14.961Z,4.27
2023-04-10T02:24:24.007Z,4.32
2023-04-10T02:26:31.797Z,4.30
2023-04-10T02:28:41.261Z,4.19
2023-04-10T02:30:51.737Z,4.32
2023-04-10T02:32:59.669Z,4.16
2023-04-10T02:35:09.028Z,4.13
2023-04-10T02:37:18.641Z,4.10
2023-04-10T02:39:26.725Z,4.05
2023-04-10T02:41:34.543Z,4.08
2023-04-10T02:43:45.009Z,4.01
2023-04-10T02:45:55.824Z,4.04
2023-04-10T02:48:08.604Z,4.01
2023-04-10T02:50:17.663Z,4.05
2023-04-10T02:52:27.245Z,3.91
2023-04-10T02:54:35.529Z,3.93
2023-04-10T02:56:43.551Z,3.94
2023-04-10T02:58:51.522Z,4.07
2023-04-10T03:01:02.160Z,4.02
2023-04-10T03:03:20.183Z,4.03
2023-04-10T03:05:32.689Z,4.05
2023-04-10T03:07:40.805Z,4.00
2023-04-10T03:09:49.789Z,4.08
2023-04-10T03:11:58.096Z,4.09
2023-04-10T03:14:06.073Z,3.94
2023-04-10T03:16:17.637Z,4.00
2023-04-10T03:18:25.714Z,3.87
2023-04-10T03:20:36.528Z,3.87
2023-04-10T03:22:44.877Z,3.84
2023-04-10T03:24:52.938Z,3.86
2023-04-10T03:27:00.942Z,3.81
2023-04-10T03:29:08.912Z,3.73
2023-04-10T03:31:19.552Z,3.66
2023-04-10T03:33:27.563Z,3.64
2023-04-10T03:35:35.560Z,3.66
2023-04-10T03:37:43.975Z,3.70
2023-04-10T03:39:51.845Z,3.71
2023-04-10T03:41:59.818Z,3.78
2023-04-10T03:44:07.833Z,3.98
2023-04-10T03:46:15.754Z,3.92
2023-04-10T03:48:30.774Z,3.81
2023-04-10T03:50:38.844Z,3.85
2023-04-10T03:52:49.860Z,3.85
2023-04-10T03:54:59.322Z,3.86
2023-04-10T03:57:09.138Z,3.87
2023-04-10T03:59:17.023Z,3.82
2023-04-10T04:01:26.394Z,3.90
2023-04-10T04:03:51.294Z,3.84
2023-04-10T04:06:18.136Z,3.84
2023-04-10T04:08:55.406Z,3.85
2023-04-10T04:11:21.799Z,3.79
2023-04-10T04:13:42.355Z,3.83
2023-04-10T04:15:56.111Z,3.82
2023-04-10T04:18:19.454Z,3.83
2023-04-10T04:20:38.267Z,3.89
2023-04-10T04:23:12.086Z,3.94
2023-04-10T04:25:36.682Z,3.80
2023-04-10T04:28:01.586Z,3.74
2023-04-10T04:30:32.891Z,3.74
2023-04-10T04:33:10.116Z,3.77
2023-04-10T04:35:33.677Z,3.68
2023-04-10T04:38:03.839Z,3.74
2023-04-10T04:40:36.374Z,3.87
2023-04-10T04:42:59.651Z,3.78
2023-04-10T04:45:26.039Z,3.72
2023-04-10T04:48:09.363Z,3.76
2023-04-10T04:50:37.571Z,3.73
2023-04-10T04:53:00.656Z,3.76
2023-04-10T04:55:17.036Z,3.81
2023-04-10T04:57:37.400Z,3.79
2023-04-10T05:00:10.227Z,3.93
2023-04-10T05:02:41.020Z,4.08
2023-04-10T05:05:08.290Z,4.35
2023-04-10T05:07:27.519Z,4.33
2023-04-10T05:09:54.084Z,4.38
2023-04-10T05:12:04.615Z,4.45
2023-04-10T05:14:31.193Z,4.68
2023-04-10T05:16:46.660Z,4.93
2023-04-10T05:19:00.711Z,5.23
2023-04-10T05:21:41.073Z,5.79
2023-04-10T05:24:04.228Z,6.14
2023-04-10T05:26:29.487Z,6.60
2023-04-10T05:28:54.359Z,7.23
2023-04-10T05:31:11.361Z,7.50
2023-04-10T05:33:19.326Z,7.88
2023-04-10T05:35:45.291Z,8.46
2023-04-10T05:38:22.328Z,8.59
2023-04-10T05:40:50.955Z,8.30
2023-04-10T05:43:17.478Z,8.82
2023-04-10T05:45:42.208Z,9.08
2023-04-10T05:48:26.281Z,9.00
2023-04-10T05:50:52.850Z,8.89
2023-04-10T05:53:33.830Z,9.22
2023-04-10T05:56:17.338Z,9.62
2023-04-10T05:58:45.239Z,10.20
2023-04-10T06:00:58.927Z,11.19
2023-04-10T06:03:27.658Z,12.76
2023-04-10T06:05:39.589Z,12.94
2023-04-10T06:07:48.774Z,12.59
2023-04-10T06:09:56.675Z,12.82
2023-04-10T06:12:04.613Z,13.33
2023-04-10T06:14:12.554Z,12.79
2023-04-10T06:16:27.396Z,12.12
2023-04-10T06:18:35.957Z,13.07
2023-04-10T06:20:44.650Z,12.88
2023-04-10T06:22:52.543Z,12.56
2023-04-10T06:25:03.228Z,12.16
2023-04-10T06:27:12.540Z,12.53
2023-04-10T06:29:20.432Z,12.77
2023-04-10T06:31:31.053Z,12.23
2023-04-10T06:33:38.923Z,11.91
2023-04-10T06:35:49.179Z,12.04
2023-04-10T06:37:57.228Z,12.24
2023-04-10T06:40:10.746Z,12.90
2023-04-10T06:42:18.885Z,12.79
2023-04-10T06:44:41.288Z,12.56
2023-04-10T06:46:51.794Z,12.60
2023-04-10T06:48:59.676Z,13.63
2023-04-10T06:51:09.311Z,12.84
2023-04-10T06:53:17.251Z,13.21
2023-04-10T06:55:25.247Z,13.69
2023-04-10T06:57:33.070Z,13.17
2023-04-10T06:59:40.931Z,14.08
2023-04-10T07:01:51.634Z,14.30
2023-04-10T07:03:59.675Z,14.64
2023-04-10T07:06:08.571Z,14.84
2023-04-10T07:08:16.608Z,14.21
2023-04-10T07:10:25.074Z,14.15
2023-04-10T07:12:33.022Z,14.86
2023-04-10T07:14:41.616Z,15.62
2023-04-10T07:16:54.172Z,16.04
2023-04-10T07:19:02.040Z,17.77
2023-04-10T07:21:14.908Z,17.00
2023-04-10T07:23:22.875Z,15.95
2023-04-10T07:25:30.811Z,16.48
2023-04-10T07:27:38.687Z,16.31
2023-04-10T07:29:46.895Z,16.85
2023-04-10T07:31:57.458Z,16.37
2023-04-10T07:34:05.638Z,15.55
2023-04-10T07:36:14.306Z,16.38
2023-04-10T07:38:25.247Z,15.26
2023-04-10T07:40:33.177Z,16.67
2023-04-10T07:42:41.095Z,16.15
2023-04-10T07:44:48.989Z,15.46
2023-04-10T07:46:59.545Z,13.61
2023-04-10T07:49:08.668Z,12.51
2023-04-10T07:51:16.754Z,11.91
2023-04-10T07:53:24.716Z,11.93
2023-04-10T07:55:32.606Z,11.73
2023-04-10T07:57:42.099Z,11.86
2023-04-10T07:59:50.239Z,11.99
2023-04-10T08:02:00.819Z,12.24
2023-04-10T08:04:08.962Z,12.22
2023-04-10T08:06:16.921Z,11.61
2023-04-10T08:08:26.639Z,11.57
2023-04-10T08:10:34.578Z,11.85
2023-04-10T08:12:42.452Z,11.93
2023-04-10T08:14:51.841Z,11.75
2023-04-10T08:17:02.526Z,11.69
2023-04-10T08:19:10.590Z,11.53
2023-04-10T08:21:18.435Z,11.82
2023-04-10T08:23:26.280Z,11.61
2023-04-10T08:25:34.284Z,11.66
2023-04-10T08:27:42.132Z,11.76
2023-04-10T08:29:49.934Z,12.25
2023-04-10T08:32:00.793Z,12.42
2023-04-10T08:34:11.384Z,12.73
2023-04-10T08:36:20.284Z,12.64
2023-04-10T08:38:28.589Z,12.59
2023-04-10T08:40:40.331Z,12.51
2023-04-10T08:42:48.289Z,12.32
2023-04-10T08:44:56.197Z,12.35
2023-04-10T08:47:06.560Z,12.28
2023-04-10T08:49:21.509Z,12.52
2023-04-10T08:51:34.842Z,12.85
2023-04-10T08:53:46.624Z,12.90
2023-04-10T08:55:54.692Z,12.76
2023-04-10T08:58:03.144Z,13.22
2023-04-10T09:00:22.458Z,12.91
2023-04-10T09:02:31.589Z,12.79
2023-04-10T09:04:42.631Z,12.51
2023-04-10T09:06:50.898Z,12.41
2023-04-10T09:11:09.679Z,12.73
2023-04-10T09:13:17.631Z,13.03
2023-04-10T09:15:25.565Z,13.18
2023-04-10T09:17:33.987Z,13.41
2023-04-10T09:19:44.728Z,13.51
2023-04-10T09:21:53.566Z,14.36
2023-04-10T09:24:03.841Z,15.46
2023-04-10T09:26:30.514Z,15.50
2023-04-10T09:28:58.870Z,15.22
2023-04-10T09:31:30.701Z,15.67
2023-04-10T09:33:38.593Z,15.91
2023-04-10T09:35:49.205Z,16.69
2023-04-10T09:37:57.227Z,17.29
2023-04-10T09:40:05.938Z,18.81
2023-04-10T09:42:15.242Z,18.42
2023-04-10T09:44:32.669Z,20.04
2023-04-10T09:46:41.054Z,19.62
2023-04-10T09:48:59.656Z,19.61
2023-04-10T09:51:10.678Z,18.58
2023-04-10T09:53:20.256Z,18.56
2023-04-10T09:55:28.419Z,18.58
2023-04-10T09:57:38.414Z,18.75
2023-04-10T09:59:50.447Z,19.63
2023-04-10T10:01:58.530Z,19.67
2023-04-10T10:04:07.699Z,19.92
2023-04-10T10:06:18.316Z,20.19
2023-04-10T10:08:26.761Z,20.27
2023-04-10T10:10:34.888Z,20.11
2023-04-10T10:12:48.844Z,18.98
2023-04-10T10:15:04.000Z,20.04
2023-04-10T10:17:14.539Z,19.28
2023-04-10T10:19:44.168Z,19.59
2023-04-10T10:21:55.207Z,19.35
2023-04-10T10:24:04.586Z,18.30
2023-04-10T10:26:13.322Z,18.85
2023-04-10T10:28:22.966Z,18.68
2023-04-10T10:30:31.077Z,18.19
2023-04-10T10:32:39.429Z,19.03
2023-04-10T10:34:47.524Z,18.58
2023-04-10T10:36:58.045Z,18.75
2023-04-10T10:39:24.989Z,17.82
2023-04-10T10:41:41.176Z,18.13
2023-04-10T10:43:56.908Z,18.12
2023-04-10T10:46:07.349Z,17.85
2023-04-10T10:48:15.634Z,18.27
2023-04-10T10:50:24.997Z,18.78
2023-04-10T10:53:01.275Z,19.17
2023-04-10T10:55:40.163Z,19.38
2023-04-10T10:57:52.248Z,18.56
2023-04-10T11:00:00.219Z,18.23
2023-04-10T11:02:18.659Z,18.63
2023-04-10T11:04:45.932Z,17.68
2023-04-10T11:06:54.958Z,17.05
2023-04-10T11:09:05.539Z,17.84
2023-04-10T11:11:16.462Z,17.28
2023-04-10T11:13:24.942Z,17.74
2023-04-10T11:15:34.175Z,18.18
2023-04-10T11:17:54.588Z,18.04
2023-04-10T11:20:04.390Z,17.48
2023-04-10T11:22:15.698Z,17.84
2023-04-10T11:24:26.284Z,17.41
2023-04-10T11:26:44.188Z,17.02
2023-04-10T11:28:52.247Z,17.30
2023-04-10T11:31:16.583Z,17.27
2023-04-10T11:33:24.523Z,16.92
2023-04-10T11:35:33.803Z,17.57
2023-04-10T11:37:41.773Z,17.95
2023-04-10T11:39:52.212Z,17.87
2023-04-10T11:42:02.074Z,18.27
2023-04-10T11:44:12.215Z,18.58
2023-04-10T11:46:20.425Z,18.15
2023-04-10T11:48:28.478Z,18.28
2023-04-10T11:50:36.433Z,17.82
2023-04-10T11:52:44.350Z,17.73
2023-04-10T11:54:54.930Z,17.85
2023-04-10T11:57:05.409Z,18.12
2023-04-10T11:59:16.309Z,18.03
2023-04-10T12:01:25.003Z,18.06
2023-04-10T12:03:40.906Z,18.05
2023-04-10T12:05:49.638Z,17.81
2023-04-10T12:07:58.542Z,17.97
2023-04-10T12:10:10.646Z,17.43
2023-04-10T12:12:20.791Z,17.53
2023-04-10T12:14:34.429Z,17.31
2023-04-10T12:16:42.460Z,17.06
2023-04-10T12:18:51.332Z,17.30
2023-04-10T12:20:59.724Z,17.31
2023-04-10T12:23:07.915Z,17.08
2023-04-10T12:25:18.742Z,16.90
2023-04-10T12:27:29.037Z,17.08
2023-04-10T12:29:36.986Z,17.28
2023-04-10T12:31:44.967Z,17.53
2023-04-10T12:33:53.823Z,17.29
2023-04-10T12:36:02.049Z,17.38
2023-04-10T12:38:09.967Z,17.43
2023-04-10T12:40:20.921Z,17.38
2023-04-10T12:42:29.207Z,17.18
2023-04-10T12:44:37.089Z,17.43
2023-04-10T12:46:46.067Z,17.34
2023-04-10T12:48:54.268Z,16.80
2023-04-10T12:51:02.434Z,16.95
2023-04-10T12:53:11.790Z,16.98
2023-04-10T12:55:25.989Z,17.16
2023-04-10T12:57:33.998Z,17.26
2023-04-10T12:59:45.295Z,17.01
2023-04-10T13:01:53.388Z,17.20
2023-04-10T13:04:02.037Z,17.20
2023-04-10T13:06:11.098Z,17.33
2023-04-10T13:08:19.123Z,17.56
2023-04-10T13:10:29.615Z,17.35
2023-04-10T13:12:39.190Z,17.41
2023-04-10T13:14:47.300Z,17.44
2023-04-10T13:16:55.214Z,17.36
2023-04-10T13:19:03.517Z,17.57
2023-04-10T13:21:11.770Z,17.62
2023-04-10T13:23:19.623Z,17.77
2023-04-10T13:25:30.312Z,18.31
2023-04-10T13:27:38.145Z,17.99
2023-04-10T13:29:46.671Z,18.19
2023-04-10T13:31:54.607Z,17.84
2023-04-10T13:34:02.577Z,17.96
2023-04-10T13:36:11.250Z,18.05
2023-04-10T13:38:20.790Z,18.50
2023-04-10T13:40:31.898Z,18.38
2023-04-10T13:42:41.933Z,18.76
2023-04-10T13:44:50.395Z,18.55
2023-04-10T13:46:58.374Z,18.78
2023-04-10T13:49:06.344Z,19.01
2023-04-10T13:51:14.207Z,19.34
2023-04-10T13:53:22.062Z,19.34
2023-04-10T13:55:32.557Z,18.84
2023-04-10T13:57:41.356Z,19.29
2023-04-10T13:59:49.918Z,18.12
2023-04-10T14:01:57.858Z,18.76
2023-04-10T14:04:05.986Z,18.71
2023-04-10T14:06:14.461Z,18.70
2023-04-10T14:08:22.567Z,17.97
2023-04-10T14:10:33.220Z,18.06
2023-04-10T14:12:41.173Z,18.55
2023-04-10T14:14:49.108Z,18.78
2023-04-10T14:16:57.225Z,18.67
2023-04-10T14:19:05.152Z,18.35
2023-04-10T14:21:20.581Z,18.74
2023-04-10T14:23:30.481Z,18.93
2023-04-10T14:25:43.903Z,19.09
2023-04-10T14:27:51.787Z,19.01
2023-04-10T14:29:59.895Z,18.87
2023-04-10T14:32:08.756Z,18.71
2023-04-10T14:34:16.725Z,18.45
2023-04-10T14:36:24.644Z,18.63
2023-04-10T14:38:32.841Z,18.38
2023-04-10T14:40:50.546Z,18.73
2023-04-10T14:43:01.373Z,18.00
2023-04-10T14:45:10.805Z,18.05
2023-04-10T14:47:18.842Z,18.41
2023-04-10T14:49:26.864Z,18.40
2023-04-10T14:51:34.840Z,18.17
2023-04-10T14:53:42.931Z,18.55
2023-04-10T14:55:53.547Z,18.23
2023-04-10T14:58:01.384Z,18.13
2023-04-10T15:00:10.784Z,17.97
2023-04-10T15:02:18.712Z,17.82
2023-04-10T15:04:26.863Z,17.73
2023-04-10T15:06:36.074Z,17.83
2023-04-10T15:08:44.019Z,17.69
2023-04-10T15:10:55.186Z,17.59
2023-04-10T15:13:03.170Z,17.61
2023-04-10T15:15:12.421Z,17.67
2023-04-10T15:17:20.505Z,17.46
2023-04-10T15:19:28.515Z,17.41
2023-04-10T15:21:36.590Z,17.48
2023-04-10T15:23:44.964Z,17.66
2023-04-10T15:25:55.628Z,17.76
2023-04-10T15:28:03.999Z,17.78
2023-04-10T15:30:12.679Z,17.61
2023-04-10T15:32:21.993Z,17.47
2023-04-10T15:34:29.978Z,17.42
2023-04-10T15:36:38.087Z,17.11
2023-04-10T15:38:47.002Z,17.32
2023-04-10T15:40:58.925Z,17.21
2023-04-10T15:43:06.827Z,17.17
2023-04-10T15:45:14.879Z,17.10
2023-04-10T15:47:22.883Z,17.00
2023-04-10T15:49:37.629Z,16.90
2023-04-10T15:51:46.751Z,16.97
2023-04-10T15:53:54.904Z,16.95
2023-04-10T15:56:07.076Z,16.89
2023-04-10T15:58:14.997Z,16.93
2023-04-10T16:00:23.663Z,16.87
2023-04-10T16:02:32.603Z,16.77
2023-04-10T16:04:41.129Z,16.84
2023-04-10T16:06:49.403Z,16.82
2023-04-10T16:08:57.380Z,16.76
2023-04-10T16:11:08.495Z,16.84
2023-04-10T16:13:16.444Z,16.69
2023-04-10T16:15:24.405Z,16.63
2023-04-10T16:17:32.302Z,16.60
2023-04-10T16:19:40.323Z,16.66
2023-04-10T16:21:48.337Z,16.65
2023-04-10T16:23:56.730Z,16.63
2023-04-10T16:26:07.484Z,16.44
2023-04-10T16:28:15.634Z,16.48
2023-04-10T16:30:23.841Z,16.33
2023-04-10T16:32:32.059Z,16.32
2023-04-10T16:34:40.115Z,16.29
2023-04-10T16:36:48.014Z,16.28
2023-04-10T16:38:56.061Z,16.35
2023-04-10T16:41:10.113Z,16.31
2023-04-10T16:43:17.913Z,16.25
2023-04-10T16:45:25.846Z,16.32
2023-04-10T16:47:33.814Z,16.23
2023-04-10T16:49:45.849Z,16.25
2023-04-10T16:51:54.068Z,16.09
2023-04-10T16:54:01.949Z,15.96
2023-04-10T16:56:12.619Z,16.01
2023-04-10T16:58:20.573Z,16.01
2023-04-10T17:00:29.223Z,15.89
2023-04-10T17:02:37.275Z,15.82
2023-04-10T17:04:45.253Z,15.78
2023-04-10T17:06:53.163Z,15.61
2023-04-10T17:09:01.150Z,15.59
2023-04-10T17:11:09.543Z,15.46
2023-04-10T17:13:20.350Z,15.44
2023-04-10T17:15:28.296Z,15.36
2023-04-10T17:17:36.510Z,15.29
2023-04-10T17:19:44.439Z,15.24
2023-04-10T17:21:52.481Z,15.16
2023-04-10T17:24:00.487Z,15.11
2023-04-10T17:26:09.348Z,15.11
2023-04-10T17:28:20.087Z,15.05
2023-04-10T17:30:27.980Z,14.96
2023-04-10T17:32:35.832Z,14.86
2023-04-10T17:34:43.880Z,14.88
2023-04-10T17:36:52.157Z,14.78
2023-04-10T17:39:00.360Z,14.76
2023-04-10T17:41:09.400Z,14.60
2023-04-10T17:43:19.944Z,14.61
2023-04-10T17:45:27.806Z,14.57
2023-04-10T17:47:35.841Z,14.55
2023-04-10T17:49:43.778Z,14.45
2023-04-10T17:51:52.311Z,14.43
2023-04-10T17:54:00.228Z,14.37
2023-04-10T17:56:08.962Z,14.34
2023-04-10T17:58:19.535Z,14.33
2023-04-10T18:00:27.812Z,14.29
2023-04-10T18:02:35.838Z,14.35
2023-04-10T18:04:43.877Z,14.24
2023-04-10T18:06:51.745Z,14.27
2023-04-10T18:08:59.891Z,14.28
2023-04-10T18:11:08.205Z,14.23
2023-04-10T18:13:16.103Z,14.06
2023-04-10T18:15:26.677Z,14.05
2023-04-10T18:17:34.663Z,14.05
2023-04-10T18:19:42.704Z,14.03
2023-04-10T18:21:51.871Z,13.99
2023-04-10T18:23:59.666Z,13.91
2023-04-10T18:26:07.582Z,13.92
2023-04-10T18:28:16.988Z,13.92
2023-04-10T18:30:28.669Z,13.92
2023-04-10T18:32:36.588Z,13.94
2023-04-10T18:34:44.688Z,13.95
2023-04-10T18:36:52.679Z,13.88
2023-04-10T18:39:00.801Z,13.80
2023-04-10T18:41:09.077Z,13.72
2023-04-10T18:43:17.135Z,13.58
2023-04-10T18:45:25.023Z,13.55
2023-04-10T18:47:35.597Z,13.49
2023-04-10T18:49:43.669Z,13.50
2023-04-10T18:51:51.463Z,13.50
2023-04-10T18:54:00.054Z,13.63
2023-04-10T18:56:08.366Z,13.64
2023-04-10T18:58:16.210Z,13.74
2023-04-10T19:00:24.477Z,13.68
2023-04-10T19:02:32.452Z,13.62
2023-04-10T19:04:43.129Z,13.55
2023-04-10T19:06:51.581Z,13.50
2023-04-10T19:08:59.545Z,13.47
2023-04-10T19:11:17.780Z,13.43
2023-04-10T19:13:27.011Z,13.36
2023-04-10T19:15:37.214Z,13.29
2023-04-10T19:17:51.425Z,13.32
2023-04-10T19:20:06.794Z,13.39
2023-04-10T19:22:15.291Z,13.31
2023-04-10T19:24:23.293Z,13.21
2023-04-10T19:26:32.047Z,13.16
2023-04-10T19:28:39.992Z,13.09
2023-04-10T19:30:48.023Z,13.01
2023-04-10T19:32:56.621Z,12.94
2023-04-10T19:35:08.264Z,12.88
2023-04-10T19:37:16.950Z,12.86
2023-04-10T19:39:26.605Z,12.82
2023-04-10T19:41:34.518Z,12.75
2023-04-10T19:43:42.535Z,12.85
2023-04-10T19:45:50.481Z,12.82
2023-04-10T19:47:59.076Z,12.74
2023-04-10T19:50:10.803Z,12.68
2023-04-10T19:52:19.629Z,12.63
2023-04-10T19:54:27.654Z,12.69
2023-04-10T19:56:37.963Z,12.87
2023-04-10T19:58:46.995Z,12.87
2023-04-10T20:00:55.794Z,12.81
2023-04-10T20:03:03.851Z,12.90
2023-04-10T20:05:14.866Z,12.85
2023-04-10T20:07:22.892Z,12.81
2023-04-10T20:09:30.896Z,12.69
2023-04-10T20:11:38.822Z,12.64
2023-04-10T20:13:46.922Z,12.74
2023-04-10T20:15:54.982Z,12.77
2023-04-10T20:18:02.928Z,12.71
2023-04-10T20:20:15.284Z,12.79
2023-04-10T20:22:23.341Z,12.65
2023-04-10T20:24:31.294Z,12.66
2023-04-10T20:26:39.154Z,12.64
2023-04-10T20:28:47.088Z,12.60
2023-04-10T20:30:54.942Z,12.69
2023-04-10T20:33:02.833Z,12.67
2023-04-10T20:35:14.218Z,12.79
2023-04-10T20:37:22.966Z,12.81
2023-04-10T20:39:31.034Z,12.86
2023-04-10T20:41:39.003Z,12.98
2023-04-10T20:43:46.966Z,13.02
2023-04-10T20:45:54.934Z,12.94
2023-04-10T20:48:02.909Z,12.86
2023-04-10T20:50:14.301Z,12.91
2023-04-10T20:52:22.266Z,12.87
2023-04-10T20:54:30.160Z,12.84
2023-04-10T20:56:43.318Z,12.97
2023-04-10T20:58:51.517Z,12.92
2023-04-10T21:00:59.470Z,12.94
2023-04-10T21:03:08.160Z,12.96
2023-04-10T21:05:18.825Z,12.93
2023-04-10T21:07:26.735Z,12.90
2023-04-10T21:09:34.636Z,12.90
2023-04-10T21:11:42.491Z,13.04
2023-04-10T21:13:50.415Z,12.95
2023-04-10T21:15:58.319Z,12.99
2023-04-10T21:18:06.562Z,12.99
2023-04-10T21:20:15.371Z,12.88
2023-04-10T21:22:27.460Z,12.79
2023-04-10T21:24:36.753Z,12.70
2023-04-10T21:26:44.704Z,12.75
2023-04-10T21:28:52.953Z,12.75
2023-04-10T21:31:00.981Z,12.85
2023-04-10T21:33:09.250Z,12.93
2023-04-10T21:35:17.146Z,12.84
2023-04-10T21:37:27.546Z,12.85
2023-04-10T21:39:35.528Z,12.76
2023-04-10T21:41:43.449Z,12.80
2023-04-10T21:43:51.303Z,12.80
2023-04-10T21:46:01.488Z,12.70
2023-04-10T21:48:10.678Z,12.65
2023-04-10T21:50:18.820Z,12.62
2023-04-10T21:52:29.256Z,12.62
2023-04-10T21:54:37.139Z,12.79
2023-04-10T21:56:45.057Z,12.73
2023-04-10T21:58:53.112Z,12.69
2023-04-10T22:01:01.339Z,12.64
2023-04-10T22:03:09.953Z,12.66
2023-04-10T22:05:18.015Z,12.73
2023-04-10T22:07:25.938Z,12.74
2023-04-10T22:09:36.430Z,12.68
2023-04-10T22:11:44.348Z,12.87
2023-04-10T22:13:52.814Z,13.02
2023-04-10T22:16:02.491Z,13.10
2023-04-10T22:18:10.696Z,13.09
2023-04-10T22:20:21.721Z,13.07
2023-04-10T22:22:29.541Z,13.03
2023-04-10T22:24:40.096Z,12.96
2023-04-10T22:26:48.678Z,13.04
2023-04-10T22:28:59.252Z,12.97
2023-04-10T22:31:07.277Z,12.96
2023-04-10T22:33:15.693Z,12.94
2023-04-10T22:35:23.656Z,12.95
2023-04-10T22:37:31.584Z,12.87
2023-04-10T22:39:42.098Z,12.89
2023-04-10T22:41:49.938Z,12.88
2023-04-10T22:43:57.826Z,13.01
2023-04-10T22:46:05.783Z,12.93
2023-04-10T22:48:13.688Z,12.86
2023-04-10T22:50:21.814Z,12.86
2023-04-10T22:52:29.786Z,12.93
2023-04-10T22:54:37.637Z,12.82
2023-04-10T22:56:49.025Z,12.67
2023-04-10T22:58:57.106Z,12.56
2023-04-10T23:01:05.172Z,12.56
2023-04-10T23:03:13.125Z,12.41
2023-04-10T23:05:21.105Z,12.29
2023-04-10T23:07:29.073Z,12.32
2023-04-10T23:09:36.897Z,12.22
2023-04-10T23:11:48.032Z,12.20
2023-04-10T23:13:55.888Z,12.24
2023-04-10T23:16:06.063Z,12.28
2023-04-10T23:18:16.316Z,12.46
2023-04-10T23:20:24.395Z,12.52
2023-04-10T23:22:32.552Z,12.41
2023-04-10T23:24:40.609Z,12.30
2023-04-10T23:26:51.136Z,12.28
2023-04-10T23:28:58.996Z,12.45
2023-04-10T23:31:06.871Z,12.42
2023-04-10T23:33:14.843Z,12.49
2023-04-10T23:35:22.678Z,12.42
2023-04-10T23:37:30.606Z,12.40
2023-04-10T23:39:38.458Z,12.40
2023-04-10T23:41:46.768Z,12.34
2023-04-10T23:43:57.202Z,12.43
2023-04-10T23:46:05.090Z,12.50
2023-04-10T23:48:13.467Z,12.65
2023-04-10T23:50:21.586Z,12.49
2023-04-10T23:52:29.521Z,12.37
2023-04-10T23:54:37.369Z,12.41
2023-04-10T23:56:45.229Z,12.45
2023-04-10T23:58:53.159Z,12.70
